Terminal Aerodrome Forecast
Issued by NWS

Home | Current Version | Previous Version | Text Only | Print | Product List | Glossary On
Versions: 1 2 3 4 5 6 7 8 9 10 11 12 13 14 15 16 17 18 19 20 21 22 23 24 25 26 27 28 29 30 31 32 33 34 35 36 37 38 39 40 41 42
644
FTUS45 KGJT 290521
TAFEGE
TAF
KEGE 290521Z 2906/3006 02009KT P6SM OVC120
     FM290800 29004KT P6SM BKN060
     FM291700 07004KT P6SM SCT120
     FM291900 32005KT P6SM FEW150
     FM300200 07004KT P6SM FEW150
      AMD LTD TO CLD VIS AND WIND TIL 291300=

USA.gov is the U.S. government's official web portal to all federal, state and local government web resources and services.